Terminal Aerodrome Forecast
Issued by NWS

Home | Current Version | Previous Version | Text Only | Print | Product List | Glossary On
Versions: 1 2 3 4 5 6 7 8 9 10 11 12 13 14 15 16 17 18 19 20 21 22 23 24 25 26 27
078
FTUS43 KLOT 091736
TAFDPA
TAF
KDPA 091736Z 0918/1018 29010KT P6SM -SN SCT023 OVC030
     FM092000 28010KT P6SM BKN035
     FM100000 26007KT P6SM SCT025 BKN120
     FM101500 23007KT P6SM OVC080=

USA.gov is the U.S. government's official web portal to all federal, state and local government web resources and services.